Time;durP1;ratioP1;P1;durP2;ratioP2;P2;SDS_P1;SDS_P2;PMS_P1;PMS_P2;Temp;Humidity;BMP_temperature;BMP_pressure;BME280_temperature;BME280_humidity;BME280_pressure;Samples;Min_cycle;Max_cycle;Signal;HPM_P1;HPM_P2
2024/01/17 00:02:07;;;;;;;16.00;11.70;;;;;;;-2.69;100.00;100747.05;105967;1256;72734;-77
2024/01/17 00:04:34;;;;;;;21.00;12.80;;;;;;;-2.71;100.00;100748.61;105845;1257;61981;-78
2024/01/17 00:07:02;;;;;;;22.10;13.30;;;;;;;-2.72;100.00;100749.47;106056;1251;60632;-78
2024/01/17 00:09:29;;;;;;;22.30;13.00;;;;;;;-2.74;100.00;100754.79;106078;1253;73696;-79
2024/01/17 00:11:58;;;;;;;21.70;12.00;;;;;;;-2.75;100.00;100763.17;105893;1257;63861;-78
2024/01/17 00:14:25;;;;;;;23.40;12.00;;;;;;;-2.76;100.00;100769.69;105852;1251;72428;-79
2024/01/17 00:16:52;;;;;;;18.20;12.40;;;;;;;-2.77;100.00;100772.59;105903;1256;61888;-77
2024/01/17 00:19:19;;;;;;;18.50;12.30;;;;;;;-2.77;100.00;100776.18;105740;1256;60405;-79
2024/01/17 00:21:47;;;;;;;18.00;12.10;;;;;;;-2.77;100.00;100777.72;106193;1257;74136;-77
2024/01/17 00:24:15;;;;;;;20.80;11.20;;;;;;;-2.77;100.00;100779.27;106028;1255;63774;-79
2024/01/17 00:26:41;;;;;;;15.80;11.10;;;;;;;-2.78;100.00;100786.96;105973;1256;71142;-78
2024/01/17 00:29:08;;;;;;;16.20;11.40;;;;;;;-2.80;100.00;100794.48;106047;1255;60858;-79
2024/01/17 00:31:35;;;;;;;17.20;11.50;;;;;;;-2.82;100.00;100792.62;106037;1257;60446;-80
2024/01/17 00:34:02;;;;;;;17.40;11.50;;;;;;;-2.83;100.00;100791.26;105854;1256;72835;-79
2024/01/17 00:36:29;;;;;;;18.50;12.10;;;;;;;-2.84;100.00;100786.45;105940;1257;63762;-79
2024/01/17 00:38:56;;;;;;;21.70;11.50;;;;;;;-2.84;100.00;100791.42;106750;1257;71183;-76
2024/01/17 00:41:23;;;;;;;16.30;10.90;;;;;;;-2.84;100.00;100796.21;106288;1252;60675;-78
2024/01/17 00:43:51;;;;;;;16.50;11.20;;;;;;;-2.84;100.00;100795.70;105919;1252;60875;-79
2024/01/17 00:46:18;;;;;;;16.20;10.80;;;;;;;-2.87;100.00;100801.02;105857;1257;73816;-79
2024/01/17 00:48:44;;;;;;;18.60;11.60;;;;;;;-2.92;100.00;100801.87;105967;1257;63798;-79
2024/01/17 00:51:22;;;;;;;18.00;11.50;;;;;;;-2.95;100.00;100803.59;106001;1257;71115;-80
2024/01/17 00:53:49;;;;;;;18.40;11.20;;;;;;;-2.98;100.00;100801.88;105798;1251;60721;-80
2024/01/17 00:56:16;;;;;;;20.80;11.20;;;;;;;-3.00;100.00;100807.02;105863;1256;60425;-80
2024/01/17 00:58:43;;;;;;;19.20;11.10;;;;;;;-3.03;100.00;100805.65;105776;1253;73245;-77
2024/01/17 01:01:10;;;;;;;17.70;11.10;;;;;;;-3.07;100.00;100807.38;105802;1253;62275;-78
2024/01/17 01:03:37;;;;;;;19.80;11.80;;;;;;;-3.13;100.00;100804.80;105814;1251;72522;-80
2024/01/17 01:06:05;;;;;;;17.80;12.20;;;;;;;-3.16;100.00;100805.84;105974;1257;61790;-78
2024/01/17 01:08:32;;;;;;;20.10;11.60;;;;;;;-3.19;100.00;100804.81;106001;1257;60418;-76
2024/01/17 01:10:58;;;;;;;22.00;13.30;;;;;;;-3.22;100.00;100803.29;106083;1251;72539;-77
2024/01/17 01:13:25;;;;;;;23.10;12.80;;;;;;;-3.23;100.00;100807.55;105813;1257;63881;-77
2024/01/17 01:15:52;;;;;;;24.70;13.50;;;;;;;-3.24;100.00;100809.61;105812;1251;71283;-78
2024/01/17 01:18:19;;;;;;;22.00;12.70;;;;;;;-3.25;100.00;100809.42;105957;1257;60488;-78
2024/01/17 01:20:46;;;;;;;23.70;12.80;;;;;;;-3.27;100.00;100814.04;105906;1256;60537;-79
2024/01/17 01:23:13;;;;;;;26.40;13.30;;;;;;;-3.28;100.00;100817.81;105987;1252;73700;-77
2024/01/17 01:25:40;;;;;;;21.30;12.20;;;;;;;-3.30;100.00;100819.70;105920;1251;62255;-78
2024/01/17 01:28:07;;;;;;;22.20;14.00;;;;;;;-3.30;100.00;100824.99;105935;1256;72626;-80
2024/01/17 01:30:34;;;;;;;20.80;11.90;;;;;;;-3.31;100.00;100827.38;105896;1256;62007;-79
2024/01/17 01:33:01;;;;;;;22.40;10.60;;;;;;;-3.31;100.00;100828.91;105941;1255;60437;-78
2024/01/17 01:35:28;;;;;;;19.90;11.90;;;;;;;-3.32;100.00;100830.12;105868;1257;73853;-78
2024/01/17 01:37:55;;;;;;;19.00;12.20;;;;;;;-3.34;100.00;100825.66;106061;1257;62547;-79
2024/01/17 01:40:22;;;;;;;18.00;11.10;;;;;;;-3.36;100.00;100827.39;105863;1256;71060;-79
2024/01/17 01:42:49;;;;;;;23.90;12.20;;;;;;;-3.37;100.00;100823.97;105874;1257;60511;-78
2024/01/17 01:45:16;;;;;;;22.00;13.80;;;;;;;-3.38;100.00;100821.41;105855;1251;60456;-78
2024/01/17 01:47:43;;;;;;;21.60;13.20;;;;;;;-3.40;100.00;100822.24;105961;1257;73834;-78
2024/01/17 01:50:11;;;;;;;22.40;13.30;;;;;;;-3.43;100.00;100823.95;105843;1251;62418;-78
2024/01/17 01:52:40;;;;;;;21.70;11.40;;;;;;;-3.46;100.00;100824.81;105843;1251;72708;-77
2024/01/17 01:55:07;;;;;;;24.80;12.30;;;;;;;-3.49;100.00;100831.98;105929;1256;61920;-77
2024/01/17 01:57:35;;;;;;;23.20;11.80;;;;;;;-3.52;100.00;100835.23;105890;1256;60341;-78
2024/01/17 02:00:04;;;;;;;19.90;12.50;;;;;;;-3.55;100.00;100842.76;105974;1258;73889;-77
2024/01/17 02:02:38;;;;;;;22.80;12.60;;;;;;;-3.57;100.00;100846.33;105906;1257;62500;-80
2024/01/17 02:05:05;;;;;;;21.70;12.70;;;;;;;-3.61;100.00;100846.66;105989;1264;72397;-79
2024/01/17 02:07:33;;;;;;;25.00;13.20;;;;;;;-3.64;100.00;100848.72;105888;1256;61819;-77
2024/01/17 02:10:01;;;;;;;23.20;13.30;;;;;;;-3.69;100.00;100852.29;105870;1257;60354;-77
2024/01/17 02:12:28;;;;;;;20.80;12.60;;;;;;;-3.73;100.00;100855.69;105919;1256;73838;-78
2024/01/17 02:14:55;;;;;;;26.60;15.50;;;;;;;-3.77;100.00;100861.66;105901;1252;62295;-80
2024/01/17 02:17:22;;;;;;;25.40;14.10;;;;;;;-3.81;100.00;100867.64;105935;1257;71128;-80
2024/01/17 02:19:48;;;;;;;24.60;14.60;;;;;;;-3.84;100.00;100870.02;105754;1257;60614;-79
2024/01/17 02:22:15;;;;;;;29.40;14.90;;;;;;;-3.85;100.00;100865.06;105815;1251;60530;-78
2024/01/17 02:24:43;;;;;;;26.90;15.60;;;;;;;-3.86;100.00;100865.22;106049;1257;73783;-78
2024/01/17 02:27:10;;;;;;;23.90;14.90;;;;;;;-3.88;100.00;100866.77;105985;1257;62304;-79
2024/01/17 02:29:37;;;;;;;30.70;15.00;;;;;;;-3.92;100.00;100869.99;105966;1251;72677;-78
2024/01/17 02:32:03;;;;;;;20.90;12.40;;;;;;;-3.97;100.00;100869.98;106018;1256;61776;-78
2024/01/17 02:34:30;;;;;;;24.50;12.80;;;;;;;-4.00;100.00;100873.89;106003;1251;60453;-78
2024/01/17 02:36:57;;;;;;;22.30;14.00;;;;;;;-4.05;100.00;100879.34;105792;1252;72781;-79
2024/01/17 02:39:24;;;;;;;21.70;12.60;;;;;;;-4.09;100.00;100879.48;105830;1257;63675;-80
2024/01/17 02:41:52;;;;;;;25.10;14.90;;;;;;;-4.13;100.00;100875.04;105842;1258;71193;-79
2024/01/17 02:44:19;;;;;;;24.70;13.70;;;;;;;-4.15;100.00;100872.46;105857;1264;62065;-77
2024/01/17 02:46:48;;;;;;;23.90;12.90;;;;;;;-4.17;100.00;100873.65;105879;1251;60524;-79
2024/01/17 02:49:19;;;;;;;29.10;15.00;;;;;;;-4.18;100.00;100878.08;105977;1254;72305;-75
2024/01/17 02:51:46;;;;;;;27.30;15.30;;;;;;;-4.20;100.00;100879.45;105914;1256;63804;-77
2024/01/17 02:54:13;;;;;;;30.90;17.40;;;;;;;-4.22;100.00;100883.87;105903;1257;72415;-77
2024/01/17 02:56:40;;;;;;;39.40;18.90;;;;;;;-4.24;100.00;100885.73;105956;1251;61122;-78
2024/01/17 02:59:08;;;;;;;25.50;15.70;;;;;;;-4.25;100.00;100890.00;105790;1256;60421;-80
2024/01/17 03:01:34;;;;;;;23.90;14.50;;;;;;;-4.27;100.00;100900.74;105931;1251;72356;-78
2024/01/17 03:04:02;;;;;;;30.80;18.80;;;;;;;-4.30;100.00;100912.33;105977;1253;62406;-78
2024/01/17 03:06:29;;;;;;;24.50;13.90;;;;;;;-4.33;100.00;100916.23;105910;1256;72657;-77
2024/01/17 03:08:56;;;;;;;32.00;19.50;;;;;;;-4.37;100.00;100918.77;105877;1252;60484;-78
2024/01/17 03:11:23;;;;;;;24.50;14.70;;;;;;;-4.41;100.00;100926.09;105861;1251;60504;-79
2024/01/17 03:13:50;;;;;;;21.60;12.50;;;;;;;-4.44;100.00;100930.16;105926;1251;73841;-79
2024/01/17 03:16:19;;;;;;;22.40;13.10;;;;;;;-4.48;100.00;100932.38;109501;1251;62560;-77
2024/01/17 03:18:46;;;;;;;21.40;12.20;;;;;;;-4.50;100.00;100935.25;109637;1251;70304;-78
2024/01/17 03:21:14;;;;;;;23.50;12.40;;;;;;;-4.50;100.00;100933.36;109693;1251;60468;-77
2024/01/17 03:23:40;;;;;;;18.80;11.30;;;;;;;-4.47;100.00;100933.55;109731;1251;59155;-77
2024/01/17 03:26:09;;;;;;;19.90;11.80;;;;;;;-4.42;100.00;100935.13;106129;1256;72394;-79
2024/01/17 03:28:36;;;;;;;20.00;11.40;;;;;;;-4.36;100.00;100933.46;105941;1251;62478;-78
2024/01/17 03:31:03;;;;;;;21.10;11.20;;;;;;;-4.27;100.00;100935.56;106018;1251;72576;-80
2024/01/17 03:33:31;;;;;;;19.80;11.60;;;;;;;-4.20;100.00;100936.79;105881;1257;60581;-79
2024/01/17 03:35:58;;;;;;;21.60;13.00;;;;;;;-4.14;100.00;100943.15;105928;1255;60402;-80
2024/01/17 03:38:25;;;;;;;45.00;22.50;;;;;;;-4.09;100.00;100949.32;105889;1254;72538;-80
2024/01/17 03:40:55;;;;;;;20.30;12.40;;;;;;;-4.05;100.00;100952.06;105899;1256;62344;-78
2024/01/17 03:43:22;;;;;;;20.90;12.20;;;;;;;-4.05;100.00;100954.30;105820;1257;72593;-79
2024/01/17 03:45:51;;;;;;;15.50;10.80;;;;;;;-4.06;100.00;100961.11;105937;1257;60588;-79
2024/01/17 03:48:19;;;;;;;19.50;10.30;;;;;;;-4.10;100.00;100961.44;106060;1251;60440;-77
2024/01/17 03:50:46;;;;;;;14.00;9.60;;;;;;;-4.17;100.00;100966.52;105897;1257;73671;-79
2024/01/17 03:53:12;;;;;;;16.40;9.70;;;;;;;-4.24;100.00;100971.77;105921;1256;63822;-78
2024/01/17 03:55:39;;;;;;;16.70;9.30;;;;;;;-4.31;100.00;100970.88;105970;1251;72614;-78
2024/01/17 03:58:07;;;;;;;18.30;10.10;;;;;;;-4.35;100.00;100969.98;105887;1256;61971;-78
2024/01/17 04:00:34;;;;;;;15.70;9.80;;;;;;;-4.38;100.00;100965.88;106021;1256;60437;-77
2024/01/17 04:03:02;;;;;;;22.00;13.80;;;;;;;-4.36;100.00;100967.41;106423;1251;73826;-78
2024/01/17 04:05:29;;;;;;;25.60;14.90;;;;;;;-4.35;100.00;100971.70;106082;1255;62530;-79
2024/01/17 04:07:56;;;;;;;16.00;10.80;;;;;;;-4.35;100.00;100969.30;106050;1251;72653;-80
2024/01/17 04:10:23;;;;;;;21.70;11.70;;;;;;;-4.34;100.00;100969.66;105930;1256;60885;-79
2024/01/17 04:12:49;;;;;;;20.80;12.80;;;;;;;-4.33;100.00;100972.05;105991;1257;60449;-80
2024/01/17 04:15:16;;;;;;;24.10;12.50;;;;;;;-4.34;100.00;100979.02;105878;1257;72667;-80
2024/01/17 04:17:43;;;;;;;24.50;13.50;;;;;;;-4.35;100.00;100980.56;106072;1256;62362;-78
2024/01/17 04:20:11;;;;;;;24.60;13.50;;;;;;;-4.38;100.00;100979.19;106276;1257;72322;-77
2024/01/17 04:22:38;;;;;;;19.40;12.70;;;;;;;-4.40;100.00;100978.65;106251;1257;62007;-77
2024/01/17 04:25:05;;;;;;;28.00;12.90;;;;;;;-4.43;100.00;100976.92;106466;1257;60398;-79
2024/01/17 04:27:32;;;;;;;21.30;12.00;;;;;;;-4.43;100.00;100981.36;106196;1251;73707;-78
2024/01/17 04:29:59;;;;;;;22.90;12.30;;;;;;;-4.42;100.00;100984.45;105875;1257;63805;-78
2024/01/17 04:32:28;;;;;;;20.40;13.40;;;;;;;-4.40;100.00;100990.44;106007;1256;72632;-78
2024/01/17 04:34:55;;;;;;;28.20;14.40;;;;;;;-4.37;100.00;100992.84;105913;1253;61190;-80
2024/01/17 04:37:22;;;;;;;32.70;19.20;;;;;;;-4.33;100.00;100998.00;105945;1257;60431;-79
2024/01/17 04:39:49;;;;;;;29.80;17.10;;;;;;;-4.31;100.00;101001.94;105861;1257;73008;-79
2024/01/17 04:42:16;;;;;;;24.90;15.20;;;;;;;-4.29;100.00;101011.83;105887;1256;62369;-79
2024/01/17 04:44:45;;;;;;;30.20;15.10;;;;;;;-4.31;100.00;101017.80;105941;1256;72493;-77
2024/01/17 04:47:13;;;;;;;26.00;13.70;;;;;;;-4.35;100.00;101027.84;105910;1251;60568;-78
2024/01/17 04:49:40;;;;;;;21.50;13.10;;;;;;;-4.39;100.00;101032.07;106027;1251;60440;-78
2024/01/17 04:52:09;;;;;;;28.60;14.30;;;;;;;-4.44;100.00;101034.94;105885;1256;74297;-78
2024/01/17 04:54:36;;;;;;;20.20;12.20;;;;;;;-4.49;100.00;101038.98;105868;1255;62260;-78
2024/01/17 04:57:03;;;;;;;23.70;13.20;;;;;;;-4.54;100.00;101042.02;105914;1256;71578;-79
2024/01/17 04:59:31;;;;;;;18.80;11.50;;;;;;;-4.59;100.00;101043.34;105896;1257;61988;-79
2024/01/17 05:01:57;;;;;;;22.50;13.50;;;;;;;-4.63;100.00;101045.52;106076;1257;60360;-80
2024/01/17 05:04:25;;;;;;;17.30;12.20;;;;;;;-4.66;100.00;101049.77;105968;1251;72315;-80
2024/01/17 05:06:51;;;;;;;21.00;11.90;;;;;;;-4.66;100.00;101052.15;105941;1255;62209;-80
2024/01/17 05:09:19;;;;;;;15.30;11.30;;;;;;;-4.63;100.00;101049.45;105963;1256;72742;-79
2024/01/17 05:11:47;;;;;;;23.50;12.90;;;;;;;-4.60;100.00;101050.84;105987;1252;60569;-78
2024/01/17 05:14:14;;;;;;;19.20;12.10;;;;;;;-4.57;100.00;101058.70;105869;1257;60463;-80
2024/01/17 05:16:41;;;;;;;21.40;11.90;;;;;;;-4.54;100.00;101056.52;105943;1251;72334;-79
2024/01/17 05:19:08;;;;;;;17.00;12.10;;;;;;;-4.50;100.00;101055.36;105960;1251;62449;-80
2024/01/17 05:21:36;;;;;;;17.10;11.70;;;;;;;-4.48;100.00;101059.14;106051;1251;72497;-79
2024/01/17 05:24:03;;;;;;;22.20;13.00;;;;;;;-4.49;100.00;101060.49;105966;1257;60566;-79
2024/01/17 05:26:30;;;;;;;24.10;12.50;;;;;;;-4.53;100.00;101062.15;106102;1251;60450;-80
2024/01/17 05:28:57;;;;;;;27.00;14.90;;;;;;;-4.57;100.00;101067.06;105942;1256;73682;-80
2024/01/17 05:31:24;;;;;;;23.40;13.60;;;;;;;-4.61;100.00;101072.49;105809;1254;63963;-80
2024/01/17 05:33:52;;;;;;;26.00;14.50;;;;;;;-4.64;100.00;101075.36;105890;1251;72762;-79
2024/01/17 05:36:19;;;;;;;22.70;14.30;;;;;;;-4.66;100.00;101074.50;105989;1251;60480;-80
2024/01/17 05:38:47;;;;;;;22.70;13.70;;;;;;;-4.66;100.00;101069.55;106038;1251;61093;-78
2024/01/17 05:41:14;;;;;;;24.70;14.80;;;;;;;-4.64;100.00;101069.73;105979;1256;74011;-81
2024/01/17 05:43:42;;;;;;;24.40;15.50;;;;;;;-4.60;100.00;101072.84;106022;1251;64235;-80
2024/01/17 05:46:09;;;;;;;23.00;14.10;;;;;;;-4.58;100.00;101074.56;106001;1256;72601;-80
2024/01/17 05:48:36;;;;;;;26.00;15.70;;;;;;;-4.56;100.00;101073.23;105988;1257;62053;-79
2024/01/17 05:51:04;;;;;;;19.70;13.50;;;;;;;-4.54;100.00;101082.27;106041;1253;60297;-80
2024/01/17 05:56:29;;;;;;;24.10;14.40;;;;;;;-4.56;100.00;101093.17;103377;1288;600307;-80
2024/01/17 05:58:57;;;;;;;39.40;19.60;;;;;;;-4.59;100.00;101095.72;104948;1271;61447;-79
2024/01/17 06:01:24;;;;;;;43.60;20.70;;;;;;;-4.60;100.00;101102.02;104928;1264;59327;-79
2024/01/17 06:03:52;;;;;;;34.80;18.80;;;;;;;-4.60;100.00;101107.65;104921;1264;72343;-79
2024/01/17 06:06:19;;;;;;;33.30;18.40;;;;;;;-4.63;100.00;101106.77;104924;1270;62479;-79
2024/01/17 06:08:48;;;;;;;32.10;17.70;;;;;;;-4.67;100.00;101108.94;104894;1269;73342;-78
2024/01/17 06:11:16;;;;;;;39.60;20.40;;;;;;;-4.70;100.00;101116.92;105011;1264;176304;-79
2024/01/17 06:13:43;;;;;;;34.80;18.20;;;;;;;-4.72;100.00;101121.00;105059;1264;60097;-80
2024/01/17 06:16:11;;;;;;;28.80;16.90;;;;;;;-4.73;100.00;101117.08;105027;1269;72082;-81
2024/01/17 06:18:39;;;;;;;31.50;16.50;;;;;;;-4.73;100.00;101117.92;105240;1264;62372;-80
2024/01/17 06:21:06;;;;;;;31.60;17.30;;;;;;;-4.72;100.00;101122.70;105175;1263;72726;-80
2024/01/17 06:23:34;;;;;;;32.20;17.90;;;;;;;-4.72;100.00;101118.44;105153;1268;60933;-78
2024/01/17 06:26:03;;;;;;;29.60;17.80;;;;;;;-4.71;100.00;101121.34;105229;1268;59650;-79
2024/01/17 06:28:33;;;;;;;27.70;17.10;;;;;;;-4.70;100.00;101125.45;105129;1262;73107;-81
2024/01/17 06:31:04;;;;;;;31.20;16.40;;;;;;;-4.68;100.00;101123.94;105122;1262;62777;-78
2024/01/17 06:33:32;;;;;;;27.40;15.80;;;;;;;-4.66;100.00;101123.62;105138;1267;71711;-78
2024/01/17 06:35:59;;;;;;;32.40;18.40;;;;;;;-4.64;100.00;101128.76;105102;1263;60824;-80
2024/01/17 06:38:27;;;;;;;27.80;13.90;;;;;;;-4.63;100.00;101129.62;105210;1267;59733;-78
2024/01/17 06:40:55;;;;;;;27.90;15.40;;;;;;;-4.61;100.00;101133.55;105191;1268;72603;-79
2024/01/17 06:43:22;;;;;;;26.30;15.30;;;;;;;-4.59;100.00;101133.58;105249;1269;62636;-80
2024/01/17 06:45:50;;;;;;;28.00;16.30;;;;;;;-4.56;100.00;101136.34;105806;1266;72544;-79
2024/01/17 06:48:17;;;;;;;28.70;15.60;;;;;;;-4.51;100.00;101140.30;105967;1259;59577;-78
2024/01/17 06:50:45;;;;;;;23.70;15.50;;;;;;;-4.46;100.00;101145.50;105827;1259;59541;-80
2024/01/17 06:53:13;;;;;;;27.50;15.70;;;;;;;-4.40;100.00;101149.81;105516;1260;73112;-81
2024/01/17 06:55:41;;;;;;;31.50;17.20;;;;;;;-4.32;100.00;101151.60;105575;1256;63190;-80
2024/01/17 06:58:08;;;;;;;41.70;20.50;;;;;;;-4.25;100.00;101151.66;105930;1257;72556;-80
2024/01/17 07:00:36;;;;;;;46.40;19.90;;;;;;;-4.17;100.00;101155.66;105877;1254;60680;-79
2024/01/17 07:03:04;;;;;;;39.90;18.80;;;;;;;-4.10;100.00;101159.14;105939;1256;60103;-81
2024/01/17 07:05:31;;;;;;;41.60;20.00;;;;;;;-4.03;100.00;101165.00;108453;1250;72347;-78
2024/01/17 07:08:00;;;;;;;42.20;19.30;;;;;;;-3.96;100.00;101161.13;108999;1251;62268;-79
2024/01/17 07:10:27;;;;;;;45.80;20.50;;;;;;;-3.91;100.00;101162.88;108920;1251;71513;-78
2024/01/17 07:12:54;;;;;;;43.40;20.40;;;;;;;-3.85;100.00;101161.23;109417;1253;60388;-80
2024/01/17 07:15:22;;;;;;;44.60;20.40;;;;;;;-3.80;100.00;101165.02;107410;1251;59650;-79
2024/01/17 07:17:49;;;;;;;41.70;20.20;;;;;;;-3.76;100.00;101161.98;105878;1251;75179;-79
2024/01/17 07:20:17;;;;;;;35.60;19.50;;;;;;;-3.71;100.00;101161.15;105840;1251;63665;-82
2024/01/17 07:22:45;;;;;;;37.70;20.80;;;;;;;-3.67;100.00;101162.73;105874;1256;72448;-81
2024/01/17 07:25:13;;;;;;;43.70;21.80;;;;;;;-3.63;100.00;101164.80;105828;1251;60007;-80
2024/01/17 07:27:44;;;;;;;38.80;19.60;;;;;;;-3.58;100.00;101163.30;105993;1256;60113;-81
2024/01/17 07:30:12;;;;;;;42.80;20.90;;;;;;;-3.53;100.00;101164.36;105867;1256;71383;-79
2024/01/17 07:32:40;;;;;;;36.70;19.60;;;;;;;-3.47;100.00;101166.96;105975;1257;62674;-80
2024/01/17 07:35:09;;;;;;;36.70;18.50;;;;;;;-3.40;100.00;101163.42;105961;1254;71704;-80
2024/01/17 07:37:36;;;;;;;38.30;19.60;;;;;;;-3.34;100.00;101163.27;105869;1254;62720;-78
2024/01/17 07:40:05;;;;;;;32.00;17.90;;;;;;;-3.28;100.00;101161.77;106011;1256;60181;-80
2024/01/17 07:42:32;;;;;;;26.40;15.60;;;;;;;-3.21;100.00;101161.13;105982;1251;72548;-78
2024/01/17 07:44:59;;;;;;;21.30;13.20;;;;;;;-3.14;100.00;101160.48;106990;1251;64481;-78
2024/01/17 07:47:27;;;;;;;27.60;15.20;;;;;;;-3.08;100.00;101165.48;106175;1256;72646;-77
2024/01/17 07:49:59;;;;;;;22.80;13.20;;;;;;;-3.01;100.00;101166.02;106447;1251;64171;-77
2024/01/17 07:52:27;;;;;;;18.10;12.80;;;;;;;-2.95;100.00;101172.36;106161;1251;59634;-79
2024/01/17 07:54:55;;;;;;;22.50;13.20;;;;;;;-2.89;100.00;101175.98;105882;1257;73165;-79
2024/01/17 07:57:23;;;;;;;23.20;14.10;;;;;;;-2.81;100.00;101178.08;105877;1251;61834;-80
2024/01/17 07:59:52;;;;;;;24.40;12.90;;;;;;;-2.75;100.00;101187.00;105972;1254;75183;-80
2024/01/17 08:02:19;;;;;;;23.80;13.00;;;;;;;-2.69;100.00;101194.71;107990;1251;60650;-79
2024/01/17 08:04:48;;;;;;;21.50;13.70;;;;;;;-2.64;100.00;101199.36;106933;1251;59746;-79
2024/01/17 08:07:16;;;;;;;20.40;12.60;;;;;;;-2.55;100.00;101204.69;106228;1251;71771;-79
2024/01/17 08:09:44;;;;;;;25.70;13.50;;;;;;;-2.44;100.00;101218.42;105890;1256;65579;-79
2024/01/17 08:12:12;;;;;;;21.40;13.30;;;;;;;-2.35;100.00;101221.19;105863;1251;71517;-78
2024/01/17 08:14:39;;;;;;;24.10;14.00;;;;;;;-2.23;100.00;101219.16;105779;1254;62623;-78
2024/01/17 08:17:08;;;;;;;18.90;13.30;;;;;;;-2.12;100.00;101215.75;105784;1256;59703;-82
2024/01/17 08:32:45;;;;;;;20.60;11.60;;;;;;;-1.45;100.00;101220.42;102496;1295;599890;-80
2024/01/17 08:35:14;;;;;;;16.00;11.30;;;;;;;-1.35;100.00;101222.98;105132;1269;59260;-78
2024/01/17 08:37:41;;;;;;;16.80;12.00;;;;;;;-1.21;100.00;101226.90;105071;1266;61634;-79
2024/01/17 08:40:08;;;;;;;21.90;13.90;;;;;;;-1.08;100.00;101230.64;105001;1269;73318;-80
2024/01/17 08:42:35;;;;;;;19.40;12.30;;;;;;;-0.94;100.00;101230.62;105050;1268;64079;-79
2024/01/17 08:45:03;;;;;;;18.30;12.00;;;;;;;-0.82;100.00;101228.86;104843;1269;173636;-80
2024/01/17 08:47:30;;;;;;;16.90;10.30;;;;;;;-0.70;100.00;101231.41;105247;1265;59658;-80
2024/01/17 08:50:00;;;;;;;15.10;8.90;;;;;;;-0.60;100.00;101230.84;105304;1264;60297;-80
2024/01/17 08:52:28;;;;;;;13.10;8.60;;;;;;;-0.53;100.00;101234.76;105117;1263;73472;-81
2024/01/17 08:54:54;;;;;;;14.20;10.00;;;;;;;-0.49;100.00;101239.04;105035;1267;64804;-80
2024/01/17 08:57:21;;;;;;;15.30;9.50;;;;;;;-0.40;100.00;101244.16;105064;1268;73899;-80
2024/01/17 08:59:49;;;;;;;17.90;10.20;;;;;;;-0.25;100.00;101249.23;105112;1263;60883;-80
2024/01/17 09:02:16;;;;;;;15.20;10.70;;;;;;;-0.15;100.00;101247.80;105351;1264;60690;-81
2024/01/17 09:04:43;;;;;;;16.30;9.80;;;;;;;-0.07;100.00;101240.03;105159;1266;72585;-80
2024/01/17 09:07:10;;;;;;;18.60;10.90;;;;;;;0.03;100.00;101243.73;105063;1266;64259;-80
2024/01/17 09:09:37;;;;;;;19.50;11.30;;;;;;;0.13;100.00;101240.57;105922;1262;71661;-80
2024/01/17 09:12:04;;;;;;;15.10;9.80;;;;;;;0.22;100.00;101241.38;105999;1254;59632;-81
2024/01/17 09:14:31;;;;;;;20.30;10.90;;;;;;;0.28;100.00;101245.80;105957;1255;59516;-79
2024/01/17 09:16:58;;;;;;;18.00;9.80;;;;;;;0.32;100.00;101246.11;105998;1256;73046;-80
2024/01/17 09:19:26;;;;;;;17.20;9.90;;;;;;;0.36;100.00;101242.48;105894;1254;63948;-81
2024/01/17 09:21:57;;;;;;;13.10;7.90;;;;;;;0.40;100.00;101242.44;106033;1257;73376;-80
2024/01/17 09:24:23;;;;;;;11.20;7.70;;;;;;;0.45;100.00;101239.47;106012;1251;59637;-80
2024/01/17 09:26:51;;;;;;;12.50;7.40;;;;;;;0.49;97.59;101239.96;106019;1251;60136;-81
2024/01/17 09:29:19;;;;;;;14.20;8.70;;;;;;;0.48;94.39;101242.20;105989;1253;70959;-78
2024/01/17 09:31:48;;;;;;;10.70;7.40;;;;;;;0.46;94.87;101243.77;105975;1251;63005;-80
2024/01/17 09:34:14;;;;;;;8.40;6.50;;;;;;;0.46;94.22;101243.59;105980;1254;71400;-80
2024/01/17 09:36:41;;;;;;;8.80;6.50;;;;;;;0.50;88.76;101239.59;106053;1254;59615;-78
2024/01/17 09:39:08;;;;;;;10.20;7.00;;;;;;;0.58;85.82;101235.58;106003;1255;59625;-80
2024/01/17 09:41:35;;;;;;;11.40;7.10;;;;;;;0.71;84.72;101226.34;105979;1252;73224;-79
2024/01/17 09:44:02;;;;;;;13.60;8.50;;;;;;;0.83;83.34;101223.98;106030;1251;61755;-79
2024/01/17 09:46:31;;;;;;;12.00;8.40;;;;;;;0.92;80.41;101217.87;105907;1256;72596;-79
2024/01/17 09:48:58;;;;;;;13.60;7.80;;;;;;;0.98;78.06;101218.49;105953;1256;59731;-77
2024/01/17 09:51:32;;;;;;;13.90;8.40;;;;;;;1.07;79.75;101214.09;105893;1251;60002;-79
2024/01/17 09:54:00;;;;;;;14.50;8.40;;;;;;;1.13;79.56;101212.30;106190;1256;70663;-79
2024/01/17 09:56:28;;;;;;;14.20;8.90;;;;;;;1.20;80.29;101209.64;106025;1256;65109;-79
2024/01/17 09:58:56;;;;;;;13.50;9.20;;;;;;;1.29;79.41;101207.30;106068;1257;72734;-79
2024/01/17 10:01:24;;;;;;;12.80;8.00;;;;;;;1.39;81.03;101210.10;106048;1251;59698;-81
2024/01/17 10:03:51;;;;;;;13.20;8.30;;;;;;;1.43;79.94;101214.54;106092;1251;59635;-80
2024/01/17 10:06:18;;;;;;;13.60;7.80;;;;;;;1.40;76.44;101220.42;106058;1251;73368;-79
2024/01/17 10:08:46;;;;;;;20.50;7.60;;;;;;;1.33;77.32;101223.95;106249;1254;64927;-77
2024/01/17 10:11:13;;;;;;;13.40;9.30;;;;;;;1.32;78.65;101224.31;106007;1256;72422;-80
2024/01/17 10:13:40;;;;;;;17.10;10.60;;;;;;;1.33;77.74;101221.19;105933;1254;60801;-79
2024/01/17 10:16:08;;;;;;;23.40;11.60;;;;;;;1.35;77.44;101224.80;105960;1251;60379;-80
2024/01/17 10:18:37;;;;;;;21.70;12.00;;;;;;;1.33;76.31;101227.05;106031;1257;73323;-81
2024/01/17 10:21:04;;;;;;;28.00;15.50;;;;;;;1.33;77.03;101226.52;105960;1254;61921;-79
2024/01/17 10:23:30;;;;;;;30.10;16.10;;;;;;;1.39;75.14;101227.15;105949;1251;71371;-79
2024/01/17 10:25:58;;;;;;;27.50;15.80;;;;;;;1.49;73.56;101225.65;105932;1254;59733;-79
2024/01/17 10:28:25;;;;;;;28.10;15.50;;;;;;;1.57;72.18;101222.77;106062;1256;59548;-79
2024/01/17 10:30:52;;;;;;;32.90;18.20;;;;;;;1.66;72.49;101216.12;106020;1254;74291;-80
2024/01/17 10:33:19;;;;;;;31.00;16.80;;;;;;;1.74;73.46;101217.56;106058;1254;65126;-79
2024/01/17 10:35:48;;;;;;;28.00;16.30;;;;;;;1.75;72.00;101218.92;105977;1254;72665;-78
2024/01/17 10:38:16;;;;;;;29.10;16.20;;;;;;;1.76;72.88;101221.50;105927;1255;59657;-78
2024/01/17 10:40:44;;;;;;;31.00;14.90;;;;;;;1.77;73.31;101221.14;105984;1254;60321;-78
2024/01/17 10:43:13;;;;;;;30.30;16.70;;;;;;;1.70;72.48;101225.20;105961;1252;73210;-79
2024/01/17 10:45:42;;;;;;;29.80;16.20;;;;;;;1.60;73.39;101221.88;105988;1254;64905;-79
2024/01/17 10:48:10;;;;;;;26.30;15.70;;;;;;;1.54;73.96;101219.03;105995;1254;71908;-79
2024/01/17 10:50:37;;;;;;;28.30;16.30;;;;;;;1.50;71.97;101221.34;105881;1251;59685;-80
2024/01/17 10:53:05;;;;;;;24.00;14.30;;;;;;;1.46;72.33;101218.11;105940;1251;60410;-79
2024/01/17 10:55:36;;;;;;;28.40;16.30;;;;;;;1.49;73.03;101217.73;106018;1251;72904;-80
2024/01/17 10:58:09;;;;;;;21.70;11.60;;;;;;;1.54;71.54;101219.55;107414;1251;64184;-79
2024/01/17 11:00:42;;;;;;;19.40;11.60;;;;;;;1.55;69.36;101222.81;107499;1251;71542;-78
2024/01/17 11:03:10;;;;;;;21.10;11.20;;;;;;;1.51;68.65;101220.11;108829;1251;60733;-79
2024/01/17 11:05:45;;;;;;;21.30;9.90;;;;;;;1.49;68.17;101221.35;108888;1251;59708;-76
2024/01/17 11:08:12;;;;;;;22.70;10.10;;;;;;;1.50;68.13;101216.67;106487;1257;71939;-79
2024/01/17 11:10:40;;;;;;;20.90;11.20;;;;;;;1.52;67.24;101213.02;105929;1251;63286;-78
2024/01/17 11:13:08;;;;;;;19.20;10.50;;;;;;;1.56;67.68;101210.56;105939;1251;72986;-77
2024/01/17 11:15:37;;;;;;;18.10;10.60;;;;;;;1.59;68.16;101209.48;106175;1251;59708;-80